Time;durP1;ratioP1;P1;durP2;ratioP2;P2;SDS_P1;SDS_P2;PMS_P1;PMS_P2;Temp;Humidity;BMP_temperature;BMP_pressure;BME280_temperature;BME280_humidity;BME280_pressure;Samples;Min_cycle;Max_cycle;Signal;HPM_P1;HPM_P2
2021/06/01 00:02:09;;;;;;;3.50;2.70;;;;;;;;;;5006768;28;20280;-56
2021/06/01 00:04:34;;;;;;;3.00;2.30;;;;;;;;;;5007731;28;20674;-56
2021/06/01 00:07:04;;;;;;;2.53;2.20;;;;;;;;;;4990861;28;20204;-56
2021/06/01 00:09:32;;;;;;;2.30;2.10;;;;;;;;;;5003290;28;20297;-55
2021/06/01 00:12:01;;;;;;;2.93;2.30;;;;;;;;;;5001263;28;20203;-55
2021/06/01 00:14:26;;;;;;;2.87;2.30;;;;;;;;;;5008840;28;20190;-55
2021/06/01 00:16:55;;;;;;;5.60;2.30;;;;;;;;;;5008384;28;20199;-55
2021/06/01 00:19:21;;;;;;;2.50;2.30;;;;;;;;;;5007599;28;20294;-57
2021/06/01 00:21:51;;;;;;;2.80;2.27;;;;;;;;;;5006392;28;20238;-57
2021/06/01 00:24:18;;;;;;;2.90;2.50;;;;;;;;;;4997322;28;20241;-57
2021/06/01 00:26:47;;;;;;;2.40;2.20;;;;;;;;;;5001745;28;20196;-55
2021/06/01 00:29:12;;;;;;;3.40;2.20;;;;;;;;;;4999766;28;20230;-55
2021/06/01 00:31:42;;;;;;;2.83;2.30;;;;;;;;;;5009120;28;20195;-56
2021/06/01 00:34:12;;;;;;;3.07;2.77;;;;;;;;;;5000979;28;20235;-56
2021/06/01 00:36:37;;;;;;;2.87;2.43;;;;;;;;;;5004692;28;20678;-57
2021/06/01 00:39:06;;;;;;;3.00;2.70;;;;;;;;;;5002848;28;20192;-55
2021/06/01 00:41:32;;;;;;;3.00;2.70;;;;;;;;;;5006322;28;21108;-55
2021/06/01 00:44:00;;;;;;;4.23;2.93;;;;;;;;;;5004051;28;20191;-56
2021/06/01 00:46:29;;;;;;;4.53;2.57;;;;;;;;;;5005554;28;20686;-56
2021/06/01 00:48:57;;;;;;;3.33;2.53;;;;;;;;;;5001936;28;20271;-55
2021/06/01 00:51:23;;;;;;;3.47;2.63;;;;;;;;;;4999272;28;20631;-56
2021/06/01 00:53:50;;;;;;;3.50;2.87;;;;;;;;;;5003303;28;20187;-56
2021/06/01 00:56:18;;;;;;;3.67;3.23;;;;;;;;;;5005979;28;20226;-57
2021/06/01 00:58:43;;;;;;;3.50;3.03;;;;;;;;;;5017366;28;20179;-56
2021/06/01 01:01:20;;;;;;;3.77;2.73;;;;;;;;;;5005562;28;20214;-55
2021/06/01 01:03:49;;;;;;;3.00;2.63;;;;;;;;;;5005672;28;20187;-55
2021/06/01 01:06:47;;;;;;;4.97;2.37;;;;;;;;;;5002866;28;20600;-55
2021/06/01 01:09:15;;;;;;;2.57;2.37;;;;;;;;;;4994230;28;20273;-55
2021/06/01 01:12:04;;;;;;;3.40;2.87;;;;;;;;;;5007009;28;20187;-56
2021/06/01 01:14:33;;;;;;;2.97;2.63;;;;;;;;;;5005041;28;20935;-55
2021/06/01 01:17:03;;;;;;;2.77;2.50;;;;;;;;;;5006223;28;20180;-56
2021/06/01 01:19:36;;;;;;;3.33;2.53;;;;;;;;;;4989760;28;20267;-55
2021/06/01 01:22:02;;;;;;;6.37;2.67;;;;;;;;;;5007195;28;20175;-57
2021/06/01 01:24:51;;;;;;;3.33;2.70;;;;;;;;;;5004565;28;20604;-57
2021/06/01 01:27:25;;;;;;;3.43;2.50;;;;;;;;;;4989002;28;20184;-57
2021/06/01 01:29:54;;;;;;;4.20;3.00;;;;;;;;;;5004358;28;20225;-55
2021/06/01 01:32:38;;;;;;;2.70;2.30;;;;;;;;;;5002702;28;20246;-55
2021/06/01 01:35:05;;;;;;;3.90;3.03;;;;;;;;;;4999725;28;20246;-57
2021/06/01 01:37:38;;;;;;;6.27;3.27;;;;;;;;;;5005005;28;20198;-55
2021/06/01 01:40:08;;;;;;;5.07;3.30;;;;;;;;;;5004753;28;20215;-56
2021/06/01 01:42:45;;;;;;;8.93;3.10;;;;;;;;;;5007236;28;20192;-56
2021/06/01 01:45:18;;;;;;;3.53;2.70;;;;;;;;;;5010083;28;20183;-55
2021/06/01 01:50:23;;;;;;;4.30;3.00;;;;;;;;;;5005150;28;20219;-56
2021/06/01 01:52:51;;;;;;;3.20;2.90;;;;;;;;;;4999640;28;20195;-55
2021/06/01 01:55:16;;;;;;;4.43;3.23;;;;;;;;;;5007374;28;20233;-56
2021/06/01 01:57:45;;;;;;;4.63;3.40;;;;;;;;;;5005644;28;20195;-55
2021/06/01 02:00:18;;;;;;;5.73;3.80;;;;;;;;;;5005060;28;20655;-55
2021/06/01 02:02:47;;;;;;;4.13;3.10;;;;;;;;;;5004113;28;20322;-56
2021/06/01 02:05:16;;;;;;;4.57;3.43;;;;;;;;;;5004415;28;20277;-55
2021/06/01 02:07:46;;;;;;;3.33;2.97;;;;;;;;;;5005445;28;20193;-56
2021/06/01 02:10:15;;;;;;;5.70;3.30;;;;;;;;;;5009186;28;20286;-55
2021/06/01 02:12:43;;;;;;;4.60;3.10;;;;;;;;;;5006265;28;20226;-55
2021/06/01 02:15:11;;;;;;;4.63;3.03;;;;;;;;;;5008359;28;20601;-57
2021/06/01 02:17:42;;;;;;;3.90;3.20;;;;;;;;;;5003743;28;20202;-55
2021/06/01 02:20:14;;;;;;;3.90;3.40;;;;;;;;;;5005961;28;20761;-57
2021/06/01 02:23:47;;;;;;;4.20;3.30;;;;;;;;;;5009360;28;20254;-57
2021/06/01 02:25:31;;;;;;;4.77;3.73;;;;;;;;;;5004471;28;20187;-57
2021/06/01 02:28:11;;;;;;;5.43;4.00;;;;;;;;;;4999777;28;20191;-57
2021/06/01 02:30:47;;;;;;;4.63;3.63;;;;;;;;;;5010575;28;20209;-55
2021/06/01 02:33:15;;;;;;;4.63;3.47;;;;;;;;;;4988126;28;20209;-57
2021/06/01 02:35:42;;;;;;;4.10;3.50;;;;;;;;;;5002218;28;20214;-55
2021/06/01 02:38:11;;;;;;;5.40;3.63;;;;;;;;;;5006618;28;20633;-56
2021/06/01 02:40:38;;;;;;;4.20;3.67;;;;;;;;;;4982307;28;20577;-55
2021/06/01 02:43:14;;;;;;;3.93;3.20;;;;;;;;;;5003134;28;20187;-58
2021/06/01 02:45:44;;;;;;;8.80;3.60;;;;;;;;;;4994776;28;20187;-56
2021/06/01 02:48:17;;;;;;;5.17;3.23;;;;;;;;;;5004223;28;20246;-56
2021/06/01 02:50:45;;;;;;;4.03;3.60;;;;;;;;;;5004004;28;20254;-55
2021/06/01 02:53:14;;;;;;;4.30;3.43;;;;;;;;;;5004308;28;20183;-55
2021/06/01 02:55:43;;;;;;;4.17;2.97;;;;;;;;;;5002552;28;20183;-56
2021/06/01 02:58:10;;;;;;;5.70;3.77;;;;;;;;;;4985027;28;20216;-55
2021/06/01 03:00:40;;;;;;;5.80;3.27;;;;;;;;;;5015082;28;20335;-55
2021/06/01 03:03:07;;;;;;;4.57;3.50;;;;;;;;;;5008167;28;20278;-56
2021/06/01 03:05:37;;;;;;;4.77;3.40;;;;;;;;;;4988212;28;20313;-57
2021/06/01 03:08:18;;;;;;;3.80;3.10;;;;;;;;;;5005005;28;20751;-55
2021/06/01 03:10:44;;;;;;;4.63;3.40;;;;;;;;;;4987192;28;20272;-56
2021/06/01 03:13:12;;;;;;;4.63;3.50;;;;;;;;;;5005479;28;20504;-56
2021/06/01 03:15:42;;;;;;;4.37;3.20;;;;;;;;;;5013151;28;20195;-55
2021/06/01 03:18:12;;;;;;;3.90;3.47;;;;;;;;;;4988724;28;20209;-56
2021/06/01 03:20:37;;;;;;;4.47;3.50;;;;;;;;;;4996804;28;20215;-55
2021/06/01 03:23:05;;;;;;;4.97;3.77;;;;;;;;;;4998147;28;20192;-56
2021/06/01 03:25:33;;;;;;;6.40;3.53;;;;;;;;;;4992636;28;20638;-55
2021/06/01 03:27:58;;;;;;;4.97;3.30;;;;;;;;;;5006861;28;20273;-55
2021/06/01 03:30:28;;;;;;;4.13;3.27;;;;;;;;;;5018880;28;20625;-55
2021/06/01 03:32:56;;;;;;;4.90;3.53;;;;;;;;;;5007561;28;20190;-55
2021/06/01 03:35:24;;;;;;;4.30;3.63;;;;;;;;;;5001781;28;20214;-56
2021/06/01 03:37:53;;;;;;;5.97;4.33;;;;;;;;;;4991851;28;20238;-55
2021/06/01 03:40:20;;;;;;;5.77;3.90;;;;;;;;;;5007811;28;20214;-56
2021/06/01 03:42:48;;;;;;;4.73;3.80;;;;;;;;;;5004493;28;20788;-55
2021/06/01 03:45:20;;;;;;;5.20;3.97;;;;;;;;;;4993091;28;20184;-55
2021/06/01 03:47:47;;;;;;;8.83;4.07;;;;;;;;;;5008788;28;20184;-56
2021/06/01 03:50:15;;;;;;;7.23;3.67;;;;;;;;;;5002443;28;20716;-56
2021/06/01 03:52:45;;;;;;;6.70;3.90;;;;;;;;;;5008294;28;20253;-55
2021/06/01 03:55:11;;;;;;;6.77;3.90;;;;;;;;;;5010084;28;20198;-55
2021/06/01 03:57:36;;;;;;;6.47;4.20;;;;;;;;;;4998934;28;20687;-55
2021/06/01 04:00:07;;;;;;;4.40;3.63;;;;;;;;;;4989514;28;20211;-55
2021/06/01 04:02:32;;;;;;;4.40;3.83;;;;;;;;;;4986012;28;20190;-55
2021/06/01 04:04:59;;;;;;;5.53;3.70;;;;;;;;;;5009487;28;20183;-56
2021/06/01 04:07:27;;;;;;;3.67;3.37;;;;;;;;;;4990478;28;20198;-56
2021/06/01 04:09:57;;;;;;;7.10;3.33;;;;;;;;;;5004813;28;20215;-55
2021/06/01 04:12:25;;;;;;;6.77;3.50;;;;;;;;;;5005984;28;20284;-55
2021/06/01 04:14:52;;;;;;;5.57;3.77;;;;;;;;;;5014068;28;20190;-56
2021/06/01 04:17:17;;;;;;;5.07;3.97;;;;;;;;;;5010059;28;20555;-55
2021/06/01 04:19:45;;;;;;;5.43;3.63;;;;;;;;;;5005949;28;20208;-56
2021/06/01 04:22:10;;;;;;;4.23;3.70;;;;;;;;;;5007600;28;20194;-56
2021/06/01 04:24:40;;;;;;;5.93;3.90;;;;;;;;;;4992870;28;20573;-57
2021/06/01 04:27:06;;;;;;;4.70;3.50;;;;;;;;;;5005415;28;20190;-56
2021/06/01 04:29:34;;;;;;;5.10;3.90;;;;;;;;;;5003270;28;20207;-56
2021/06/01 04:32:02;;;;;;;4.43;3.30;;;;;;;;;;5003929;28;20683;-55
2021/06/01 04:34:30;;;;;;;3.70;3.27;;;;;;;;;;4987962;28;20222;-55
2021/06/01 04:37:00;;;;;;;4.10;3.67;;;;;;;;;;4997674;28;20184;-55
2021/06/01 04:39:25;;;;;;;6.80;3.43;;;;;;;;;;4992541;28;20276;-56
2021/06/01 04:41:52;;;;;;;5.43;3.67;;;;;;;;;;5011181;28;20815;-55
2021/06/01 04:44:20;;;;;;;4.70;3.63;;;;;;;;;;5005138;28;20246;-55
2021/06/01 04:46:50;;;;;;;4.20;3.40;;;;;;;;;;5007370;28;20307;-57
2021/06/01 04:49:20;;;;;;;5.30;3.77;;;;;;;;;;5009856;28;20221;-55
2021/06/01 04:51:48;;;;;;;4.07;3.67;;;;;;;;;;4991405;28;20306;-56
2021/06/01 04:54:16;;;;;;;5.87;3.60;;;;;;;;;;5007344;28;20589;-55
2021/06/01 04:56:41;;;;;;;4.70;3.90;;;;;;;;;;5004297;28;20676;-56
2021/06/01 04:59:09;;;;;;;3.90;3.20;;;;;;;;;;5004704;28;20199;-56
2021/06/01 05:01:34;;;;;;;4.03;3.60;;;;;;;;;;5005754;28;20202;-56
2021/06/01 05:04:04;;;;;;;4.17;3.77;;;;;;;;;;4991170;28;20597;-56
2021/06/01 05:06:34;;;;;;;4.13;3.73;;;;;;;;;;5000131;28;20628;-56
2021/06/01 05:09:04;;;;;;;5.03;3.80;;;;;;;;;;5002097;28;20191;-54
2021/06/01 05:11:34;;;;;;;5.03;3.40;;;;;;;;;;5000884;28;20180;-56
2021/06/01 05:14:05;;;;;;;9.10;3.97;;;;;;;;;;4990124;28;20257;-55
2021/06/01 05:16:36;;;;;;;8.23;3.60;;;;;;;;;;5007908;28;20236;-57
2021/06/01 05:19:04;;;;;;;6.17;3.73;;;;;;;;;;4985466;28;20238;-55
2021/06/01 05:21:31;;;;;;;7.33;3.73;;;;;;;;;;4984683;28;20204;-55
2021/06/01 05:23:57;;;;;;;7.40;4.07;;;;;;;;;;4990169;28;20211;-57
2021/06/01 05:26:24;;;;;;;8.07;3.43;;;;;;;;;;5002468;28;20606;-55
2021/06/01 05:28:50;;;;;;;4.70;3.80;;;;;;;;;;5003882;28;20206;-55
2021/06/01 05:31:22;;;;;;;5.50;4.20;;;;;;;;;;5007441;28;20212;-55
2021/06/01 05:33:57;;;;;;;5.60;3.90;;;;;;;;;;4996595;28;20207;-55
2021/06/01 05:36:24;;;;;;;4.87;3.83;;;;;;;;;;5005165;28;20775;-57
2021/06/01 05:38:52;;;;;;;6.23;3.90;;;;;;;;;;5008220;28;20197;-56
2021/06/01 05:41:18;;;;;;;5.13;3.77;;;;;;;;;;4994314;28;20583;-56
2021/06/01 05:43:46;;;;;;;6.63;3.77;;;;;;;;;;5006429;28;20278;-56
2021/06/01 05:46:13;;;;;;;11.17;4.00;;;;;;;;;;5010000;28;20548;-56
2021/06/01 05:48:41;;;;;;;5.30;4.10;;;;;;;;;;4996537;28;20184;-55
2021/06/01 05:51:11;;;;;;;5.17;3.70;;;;;;;;;;5002579;28;20212;-57
2021/06/01 05:53:36;;;;;;;3.80;3.50;;;;;;;;;;5005563;28;20245;-58
2021/06/01 05:56:04;;;;;;;6.00;3.90;;;;;;;;;;5001932;28;20196;-55
2021/06/01 05:58:36;;;;;;;5.27;3.63;;;;;;;;;;5001264;28;20206;-55
2021/06/01 06:01:04;;;;;;;4.23;3.07;;;;;;;;;;4999613;28;20217;-55
2021/06/01 06:03:31;;;;;;;7.67;3.53;;;;;;;;;;5007251;28;20246;-55
2021/06/01 06:06:01;;;;;;;5.30;3.37;;;;;;;;;;5007143;28;20194;-57
2021/06/01 06:08:29;;;;;;;5.07;3.27;;;;;;;;;;5008326;28;20655;-55
2021/06/01 06:10:56;;;;;;;6.87;3.93;;;;;;;;;;4991460;28;20765;-57
2021/06/01 06:13:22;;;;;;;5.13;3.20;;;;;;;;;;5009174;28;20591;-57
2021/06/01 06:15:52;;;;;;;6.03;3.60;;;;;;;;;;4987420;28;20187;-56
2021/06/01 06:18:27;;;;;;;8.20;3.90;;;;;;;;;;4989492;28;20230;-55
2021/06/01 06:21:00;;;;;;;4.70;3.13;;;;;;;;;;5005323;28;20233;-56
2021/06/01 06:23:29;;;;;;;7.07;3.57;;;;;;;;;;4996089;28;20808;-56
2021/06/01 06:25:55;;;;;;;6.03;4.20;;;;;;;;;;4996937;28;20660;-56
2021/06/01 06:28:27;;;;;;;10.50;4.13;;;;;;;;;;5005081;28;20259;-56
2021/06/01 06:30:53;;;;;;;6.43;4.13;;;;;;;;;;4986568;28;20222;-56
2021/06/01 06:33:20;;;;;;;7.27;4.37;;;;;;;;;;5002477;28;20625;-57
2021/06/01 06:35:50;;;;;;;8.40;4.03;;;;;;;;;;5002192;28;20195;-55
2021/06/01 06:38:15;;;;;;;7.00;4.17;;;;;;;;;;5001354;28;20537;-56
2021/06/01 06:40:49;;;;;;;6.73;4.63;;;;;;;;;;5008333;28;20219;-54
2021/06/01 06:43:16;;;;;;;19.17;4.90;;;;;;;;;;5011508;28;20180;-56
2021/06/01 06:45:46;;;;;;;7.30;4.40;;;;;;;;;;5006966;28;20195;-56
2021/06/01 06:48:14;;;;;;;6.73;4.13;;;;;;;;;;5002584;28;20713;-56
2021/06/01 06:50:41;;;;;;;5.10;4.10;;;;;;;;;;5002587;28;20220;-55
2021/06/01 06:53:10;;;;;;;5.50;4.00;;;;;;;;;;4997893;28;20617;-57
2021/06/01 06:55:35;;;;;;;6.90;4.03;;;;;;;;;;5002673;28;20249;-57
2021/06/01 06:58:05;;;;;;;5.87;4.10;;;;;;;;;;5001775;28;20203;-57
2021/06/01 07:00:35;;;;;;;7.53;4.67;;;;;;;;;;5007051;28;20220;-56
2021/06/01 07:03:00;;;;;;;9.53;4.10;;;;;;;;;;5010278;28;20282;-57
2021/06/01 07:05:30;;;;;;;5.97;4.17;;;;;;;;;;5005393;28;20282;-58
2021/06/01 07:07:59;;;;;;;8.13;4.20;;;;;;;;;;4998731;28;20248;-58
2021/06/01 07:10:25;;;;;;;7.50;3.90;;;;;;;;;;5002743;28;20241;-58
2021/06/01 07:12:51;;;;;;;7.05;3.80;;;;;;;;;;5004725;28;20324;-57
2021/06/01 07:15:28;;;;;;;6.72;3.50;;;;;;;;;;5006324;28;20288;-57
2021/06/01 07:17:55;;;;;;;8.98;3.38;;;;;;;;;;5002431;28;20194;-58
2021/06/01 07:20:22;;;;;;;8.38;3.88;;;;;;;;;;4986230;28;20646;-58
2021/06/01 07:22:53;;;;;;;9.75;3.85;;;;;;;;;;4987401;28;20815;-58
2021/06/01 07:25:18;;;;;;;6.65;3.78;;;;;;;;;;5008721;28;20245;-58
2021/06/01 07:27:45;;;;;;;6.47;4.07;;;;;;;;;;5006742;28;20187;-58
2021/06/01 07:30:11;;;;;;;10.05;4.30;;;;;;;;;;5004636;28;20764;-59
2021/06/01 07:32:36;;;;;;;5.63;3.60;;;;;;;;;;5003053;28;20188;-59
2021/06/01 07:35:06;;;;;;;4.38;3.88;;;;;;;;;;5001236;28;20691;-59
2021/06/01 07:37:36;;;;;;;5.35;3.95;;;;;;;;;;5000294;28;21428;-58
2021/06/01 07:40:03;;;;;;;8.05;4.22;;;;;;;;;;4980907;28;20273;-59
2021/06/01 07:42:30;;;;;;;7.95;4.70;;;;;;;;;;5004773;28;20193;-59
2021/06/01 07:44:57;;;;;;;5.40;4.90;;;;;;;;;;5005274;28;20236;-59
2021/06/01 07:47:25;;;;;;;8.07;5.22;;;;;;;;;;5005588;28;20218;-59
2021/06/01 07:49:51;;;;;;;6.03;5.43;;;;;;;;;;5002323;28;21033;-59
2021/06/01 07:52:21;;;;;;;5.55;5.13;;;;;;;;;;4991029;28;20195;-59
2021/06/01 07:54:48;;;;;;;7.53;6.45;;;;;;;;;;4995762;28;20257;-59
2021/06/01 07:57:13;;;;;;;6.35;5.75;;;;;;;;;;5005880;28;20187;-60
2021/06/01 07:59:39;;;;;;;6.65;5.57;;;;;;;;;;5003811;28;20207;-59
2021/06/01 08:02:07;;;;;;;6.25;5.65;;;;;;;;;;4981818;28;20241;-59
2021/06/01 08:04:36;;;;;;;8.52;4.78;;;;;;;;;;4973510;28;20837;-58
2021/06/01 08:07:05;;;;;;;6.05;5.10;;;;;;;;;;5000189;28;20178;-59
2021/06/01 08:09:35;;;;;;;6.05;4.40;;;;;;;;;;5000912;28;20226;-58
2021/06/01 08:12:04;;;;;;;5.50;4.70;;;;;;;;;;5002918;28;20202;-58
2021/06/01 08:14:30;;;;;;;5.70;4.15;;;;;;;;;;5004316;28;20183;-58
2021/06/01 08:16:57;;;;;;;4.82;4.20;;;;;;;;;;5009479;28;20225;-57
2021/06/01 08:19:26;;;;;;;4.55;3.97;;;;;;;;;;5001446;28;20749;-59
2021/06/01 08:21:59;;;;;;;5.85;4.03;;;;;;;;;;4984473;28;20319;-59
2021/06/01 08:24:30;;;;;;;4.95;3.63;;;;;;;;;;5009114;28;20190;-57
2021/06/01 08:26:55;;;;;;;7.05;3.63;;;;;;;;;;5014951;28;20210;-58
2021/06/01 08:29:23;;;;;;;6.30;3.60;;;;;;;;;;5008375;28;20191;-58
2021/06/01 08:31:49;;;;;;;4.43;3.50;;;;;;;;;;5012920;28;20198;-59
2021/06/01 08:34:14;;;;;;;4.90;3.83;;;;;;;;;;5014943;28;20192;-58
2021/06/01 08:36:39;;;;;;;7.68;3.92;;;;;;;;;;5002853;28;20215;-57
2021/06/01 08:39:06;;;;;;;6.28;4.15;;;;;;;;;;5002043;28;20542;-58
2021/06/01 08:41:32;;;;;;;4.78;3.90;;;;;;;;;;5006586;28;20196;-59
2021/06/01 08:44:04;;;;;;;4.70;4.30;;;;;;;;;;5006078;28;20200;-58
2021/06/01 08:46:35;;;;;;;6.07;4.20;;;;;;;;;;5003985;28;20218;-58
2021/06/01 08:49:07;;;;;;;5.22;4.70;;;;;;;;;;5006547;28;20274;-58
2021/06/01 08:51:34;;;;;;;5.88;4.30;;;;;;;;;;5008647;28;20265;-58
2021/06/01 08:54:04;;;;;;;6.55;4.80;;;;;;;;;;5007424;28;20194;-58
2021/06/01 08:56:32;;;;;;;6.97;4.70;;;;;;;;;;5000001;28;20686;-58
2021/06/01 08:58:59;;;;;;;5.40;4.63;;;;;;;;;;5010242;28;20189;-58
2021/06/01 09:01:25;;;;;;;5.18;4.68;;;;;;;;;;5003279;28;20732;-58
2021/06/01 09:03:57;;;;;;;9.68;4.78;;;;;;;;;;5008045;28;20203;-59
2021/06/01 09:22:42;;;;;;;4.97;4.22;;;;;;;;;;5004763;28;21142;-58
2021/06/01 09:25:30;;;;;;;5.65;4.25;;;;;;;;;;5008082;28;20249;-59
2021/06/01 09:28:01;;;;;;;4.72;4.32;;;;;;;;;;5019768;28;20212;-59
2021/06/01 09:30:35;;;;;;;5.93;4.40;;;;;;;;;;5001044;28;20229;-58
2021/06/01 09:33:05;;;;;;;4.57;4.18;;;;;;;;;;5003518;28;20900;-57
2021/06/01 09:35:43;;;;;;;5.50;4.20;;;;;;;;;;5005400;28;20201;-57
2021/06/01 09:38:08;;;;;;;7.88;4.18;;;;;;;;;;5007116;28;20204;-58
2021/06/01 09:40:38;;;;;;;4.32;3.92;;;;;;;;;;5008297;28;20301;-57
2021/06/01 09:43:13;;;;;;;4.80;3.83;;;;;;;;;;5007781;28;20735;-57
2021/06/01 09:45:41;;;;;;;4.75;4.30;;;;;;;;;;5005275;28;20691;-57
2021/06/01 09:48:11;;;;;;;5.10;4.60;;;;;;;;;;5008192;28;20703;-56
2021/06/01 09:50:53;;;;;;;6.85;4.50;;;;;;;;;;5004974;28;20211;-58
2021/06/01 09:53:28;;;;;;;4.72;4.30;;;;;;;;;;5001472;28;20214;-57
2021/06/01 09:55:58;;;;;;;5.05;4.30;;;;;;;;;;4997132;28;20209;-58
2021/06/01 09:58:34;;;;;;;4.97;4.45;;;;;;;;;;5005329;28;20239;-58
2021/06/01 10:01:02;;;;;;;4.78;4.25;;;;;;;;;;5008509;28;20309;-57
2021/06/01 10:03:46;;;;;;;4.75;4.35;;;;;;;;;;5011588;28;20217;-58
2021/06/01 10:06:14;;;;;;;6.43;4.40;;;;;;;;;;5001938;28;20609;-58
2021/06/01 10:08:45;;;;;;;5.45;4.38;;;;;;;;;;5004013;28;20190;-57
2021/06/01 10:11:14;;;;;;;6.80;4.30;;;;;;;;;;4999835;28;20226;-58
2021/06/01 10:13:41;;;;;;;4.82;4.38;;;;;;;;;;5002075;28;20213;-58
2021/06/01 10:16:11;;;;;;;4.65;4.25;;;;;;;;;;4991485;28;20674;-58
2021/06/01 10:18:40;;;;;;;4.70;4.25;;;;;;;;;;5011504;28;20186;-58
2021/06/01 10:21:11;;;;;;;4.47;4.13;;;;;;;;;;5003794;28;20259;-58
2021/06/01 10:23:44;;;;;;;5.60;5.07;;;;;;;;;;4984286;28;20277;-58
2021/06/01 10:26:12;;;;;;;4.57;4.18;;;;;;;;;;5007754;28;20654;-57
2021/06/01 10:28:43;;;;;;;4.57;4.18;;;;;;;;;;5001324;28;20262;-57
2021/06/01 10:31:13;;;;;;;5.82;4.45;;;;;;;;;;5001038;28;20207;-57
2021/06/01 10:33:49;;;;;;;4.65;4.28;;;;;;;;;;4996318;28;20207;-58
2021/06/01 10:42:33;;;;;;;4.70;4.30;;;;;;;;;;5006833;28;20252;-58
2021/06/01 10:50:54;;;;;;;5.93;3.72;;;;;;;;;;4952865;28;20278;-58
2021/06/01 10:53:23;;;;;;;4.95;4.35;;;;;;;;;;5000842;28;20226;-56
2021/06/01 10:55:58;;;;;;;4.90;4.25;;;;;;;;;;4987653;28;20242;-57
2021/06/01 10:58:30;;;;;;;4.40;4.10;;;;;;;;;;5005644;28;20199;-57
2021/06/01 11:04:03;;;;;;;4.28;3.90;;;;;;;;;;5004962;28;20693;-57
2021/06/01 11:06:58;;;;;;;4.30;3.90;;;;;;;;;;5006013;28;20187;-57
2021/06/01 11:09:38;;;;;;;5.32;4.05;;;;;;;;;;5004970;28;20183;-57
2021/06/01 11:12:17;;;;;;;4.25;3.90;;;;;;;;;;5006191;28;20611;-57
2021/06/01 11:14:46;;;;;;;4.20;3.65;;;;;;;;;;4987927;28;20710;-58
2021/06/01 11:17:14;;;;;;;5.13;4.50;;;;;;;;;;5000206;28;20291;-57
2021/06/01 11:20:11;;;;;;;3.85;3.55;;;;;;;;;;4995239;28;20199;-57
2021/06/01 11:23:13;;;;;;;6.07;4.75;;;;;;;;;;4996914;28;21601;-57
2021/06/01 11:33:42;;;;;;;4.72;4.32;;;;;;;;;;4996921;28;20195;-56
2021/06/01 11:36:11;;;;;;;4.85;4.38;;;;;;;;;;4997364;28;20198;-58
2021/06/01 11:38:43;;;;;;;4.45;4.05;;;;;;;;;;5006272;28;20214;-59
2021/06/01 11:43:56;;;;;;;4.65;4.25;;;;;;;;;;5007225;28;20279;-57
2021/06/01 11:46:33;;;;;;;6.35;4.20;;;;;;;;;;5002347;28;20270;-58
2021/06/01 11:51:51;;;;;;;4.88;4.30;;;;;;;;;;5010158;28;20327;-57
2021/06/01 11:54:17;;;;;;;4.95;4.00;;;;;;;;;;5008226;28;20271;-58
2021/06/01 12:14:13;;;;;;;4.68;4.28;;;;;;;;;;4935501;29;20232;-56
2021/06/01 12:19:34;;;;;;;4.72;4.10;;;;;;;;;;4986633;28;20225;-56
2021/06/01 12:21:59;;;;;;;6.35;3.78;;;;;;;;;;5005813;28;20200;-56
2021/06/01 12:24:30;;;;;;;5.07;4.57;;;;;;;;;;4984757;28;20566;-57
2021/06/01 12:27:13;;;;;;;4.25;3.85;;;;;;;;;;5006579;28;20194;-56
2021/06/01 12:32:34;;;;;;;5.15;4.65;;;;;;;;;;5004884;28;20210;-56
2021/06/01 12:44:03;;;;;;;5.18;4.28;;;;;;;;;;4921124;29;20276;-55
2021/06/01 13:07:34;;;;;;;4.85;3.95;;;;;;;;;;4994617;28;20198;-57
2021/06/01 13:12:03;;;;;;;6.00;4.32;;;;;;;;;;5008562;28;20222;-56
2021/06/01 13:40:02;;;;;;;5.20;4.15;;;;;;;;;;5009566;28;20219;-57
2021/06/01 13:48:28;;;;;;;5.65;4.10;;;;;;;;;;5002922;28;20226;-56
2021/06/01 13:56:22;;;;;;;6.53;4.15;;;;;;;;;;5007782;28;20183;-56
2021/06/01 14:01:34;;;;;;;7.03;4.20;;;;;;;;;;5007749;28;20335;-56
2021/06/01 14:10:04;;;;;;;6.32;4.15;;;;;;;;;;5006568;28;20218;-56
2021/06/01 14:15:31;;;;;;;5.70;3.45;;;;;;;;;;5006716;28;20637;-56
2021/06/01 14:21:04;;;;;;;4.70;4.00;;;;;;;;;;5005363;28;20207;-56
2021/06/01 15:07:40;;;;;;;;;;;;;;;;;;;;;
2021/06/01 15:24:42;;;;;;;4.68;3.75;;;;;;;;;;4996312;28;20190;-56
2021/06/01 15:30:10;;;;;;;7.00;4.35;;;;;;;;;;5007374;28;20221;-56
2021/06/01 15:41:20;;;;;;;5.45;4.60;;;;;;;;;;5009704;28;20198;-55
2021/06/01 15:49:24;;;;;;;5.22;4.72;;;;;;;;;;5005047;28;20195;-56
2021/06/01 16:14:19;;;;;;;5.35;4.30;;;;;;;;;;4989768;28;20210;-54
2021/06/01 16:22:45;;;;;;;4.93;4.45;;;;;;;;;;5007870;28;20611;-56
2021/06/01 16:33:44;;;;;;;11.52;5.40;;;;;;;;;;5009205;28;20700;-56
2021/06/01 16:42:00;;;;;;;7.20;4.75;;;;;;;;;;5009669;28;20242;-55
2021/06/01 17:04:12;;;;;;;5.13;3.90;;;;;;;;;;5000471;28;20292;-56
2021/06/01 17:06:55;;;;;;;4.70;3.92;;;;;;;;;;5007062;28;20338;-56
2021/06/01 17:11:59;;;;;;;4.93;4.53;;;;;;;;;;4993431;28;20298;-56
2021/06/01 17:14:30;;;;;;;5.50;4.00;;;;;;;;;;4996227;28;20311;-57
2021/06/01 17:17:02;;;;;;;7.50;4.20;;;;;;;;;;4995299;28;20246;-57
2021/06/01 17:35:43;;;;;;;7.18;4.50;;;;;;;;;;5008288;28;20193;-57
2021/06/01 17:38:11;;;;;;;5.10;4.68;;;;;;;;;;4988628;28;20283;-58
2021/06/01 17:40:40;;;;;;;5.00;4.22;;;;;;;;;;5007933;28;20217;-57
2021/06/01 17:43:08;;;;;;;6.00;4.13;;;;;;;;;;5004706;28;20330;-56
2021/06/01 17:45:45;;;;;;;6.45;4.15;;;;;;;;;;5001039;28;20191;-56
2021/06/01 17:48:26;;;;;;;4.22;3.92;;;;;;;;;;5008622;28;20683;-56
2021/06/01 17:50:54;;;;;;;5.70;4.10;;;;;;;;;;5002574;28;20226;-56
2021/06/01 17:53:21;;;;;;;5.35;4.13;;;;;;;;;;4970997;28;20648;-57
2021/06/01 17:55:52;;;;;;;6.43;4.38;;;;;;;;;;4997036;28;20559;-56
2021/06/01 17:58:22;;;;;;;4.35;3.95;;;;;;;;;;5005145;28;20238;-55
2021/06/01 18:00:50;;;;;;;4.93;4.00;;;;;;;;;;5003226;28;20203;-53
2021/06/01 18:03:21;;;;;;;5.78;4.03;;;;;;;;;;5006401;28;20195;-55
2021/06/01 18:05:49;;;;;;;5.72;3.83;;;;;;;;;;4999175;28;20246;-55
2021/06/01 18:08:42;;;;;;;5.57;4.13;;;;;;;;;;5000499;28;20245;-55
2021/06/01 19:21:24;;;;;;;6.18;4.18;;;;;;;;;;5006747;28;20258;-57
2021/06/01 19:28:28;;;;;;;7.57;4.15;;;;;;;;;;4987676;28;20674;-57
2021/06/01 19:50:51;;;;;;;4.03;3.63;;;;;;;;;;4987810;28;20868;-56
2021/06/01 19:53:20;;;;;;;3.20;2.90;;;;;;;;;;5005939;28;20187;-56
2021/06/01 19:55:46;;;;;;;5.50;2.63;;;;;;;;;;5009920;28;20640;-56
2021/06/01 19:58:17;;;;;;;5.90;2.83;;;;;;;;;;5005142;28;20223;-56
2021/06/01 20:00:47;;;;;;;4.63;2.60;;;;;;;;;;5010604;28;20229;-57
2021/06/01 20:03:20;;;;;;;5.95;2.13;;;;;;;;;;5008116;28;20690;-56
2021/06/01 20:05:47;;;;;;;2.65;2.10;;;;;;;;;;4989442;28;20298;-55
2021/06/01 20:08:15;;;;;;;4.15;1.77;;;;;;;;;;5006022;28;20190;-54
2021/06/01 20:10:43;;;;;;;3.25;2.00;;;;;;;;;;4989106;28;20254;-55
2021/06/01 20:13:09;;;;;;;2.90;1.83;;;;;;;;;;4992873;28;20187;-54
2021/06/01 20:15:39;;;;;;;2.50;1.75;;;;;;;;;;5009930;28;20191;-55
2021/06/01 20:18:09;;;;;;;2.42;1.88;;;;;;;;;;5007160;28;20733;-55
2021/06/01 20:20:38;;;;;;;3.38;1.80;;;;;;;;;;5009363;28;20223;-55
2021/06/01 20:23:07;;;;;;;5.38;1.88;;;;;;;;;;4997114;28;20245;-57
2021/06/01 20:25:34;;;;;;;1.65;1.55;;;;;;;;;;5004487;28;20205;-58
2021/06/01 20:28:04;;;;;;;7.13;1.85;;;;;;;;;;5002559;28;20233;-57
2021/06/01 20:30:53;;;;;;;4.50;1.90;;;;;;;;;;5008798;28;20219;-58
2021/06/01 20:33:16;;;;;;;2.38;1.75;;;;;;;;;;4997965;28;20261;-58
2021/06/01 20:35:49;;;;;;;1.75;1.60;;;;;;;;;;5005758;28;20636;-56
2021/06/01 20:38:16;;;;;;;3.20;1.77;;;;;;;;;;4994291;28;20203;-57
2021/06/01 20:40:44;;;;;;;1.65;1.20;;;;;;;;;;5004892;28;20204;-57
2021/06/01 20:43:10;;;;;;;1.35;1.25;;;;;;;;;;5002226;28;20306;-58
2021/06/01 20:45:40;;;;;;;2.80;1.40;;;;;;;;;;5008777;28;20237;-58
2021/06/01 20:48:12;;;;;;;3.72;1.80;;;;;;;;;;5002937;28;20184;-56
2021/06/01 20:50:40;;;;;;;5.10;1.75;;;;;;;;;;5007403;28;20219;-56
2021/06/01 20:53:06;;;;;;;3.33;1.85;;;;;;;;;;5008582;28;20198;-56
2021/06/01 20:55:32;;;;;;;3.92;2.10;;;;;;;;;;5007308;28;20188;-58
2021/06/01 20:58:33;;;;;;;2.53;1.60;;;;;;;;;;5008096;28;20194;-55
2021/06/01 21:01:00;;;;;;;2.67;1.40;;;;;;;;;;4959663;28;20342;-57
2021/06/01 21:03:27;;;;;;;1.38;1.10;;;;;;;;;;5004770;28;20238;-57
2021/06/01 21:05:53;;;;;;;1.30;1.20;;;;;;;;;;5006505;28;20198;-57
2021/06/01 21:08:23;;;;;;;1.50;1.40;;;;;;;;;;5009578;28;20626;-57
2021/06/01 21:10:48;;;;;;;3.03;1.33;;;;;;;;;;4992682;28;20703;-57
2021/06/01 21:13:14;;;;;;;2.03;1.67;;;;;;;;;;5010098;28;20229;-58
2021/06/01 21:15:42;;;;;;;3.30;1.75;;;;;;;;;;5007248;28;20871;-58
2021/06/01 21:18:10;;;;;;;3.38;2.00;;;;;;;;;;5004939;28;20194;-56
2021/06/01 21:20:37;;;;;;;1.50;1.40;;;;;;;;;;5000689;28;20233;-56
2021/06/01 21:23:05;;;;;;;2.80;2.00;;;;;;;;;;4994331;28;20202;-55
2021/06/01 21:25:30;;;;;;;2.63;2.00;;;;;;;;;;5006664;28;20244;-55
2021/06/01 21:27:59;;;;;;;2.00;1.70;;;;;;;;;;5001838;28;20879;-57
2021/06/01 21:30:28;;;;;;;2.05;1.80;;;;;;;;;;5008741;28;20218;-55
2021/06/01 21:33:08;;;;;;;2.67;1.63;;;;;;;;;;5007172;28;20195;-59
2021/06/01 21:35:39;;;;;;;2.10;1.88;;;;;;;;;;5008289;28;20253;-57
2021/06/01 21:38:08;;;;;;;3.45;1.92;;;;;;;;;;5009062;28;20183;-56
2021/06/01 21:40:42;;;;;;;5.20;2.00;;;;;;;;;;5008429;28;20264;-57
2021/06/01 21:43:15;;;;;;;1.95;1.77;;;;;;;;;;5007952;28;20277;-56
2021/06/01 21:45:43;;;;;;;1.92;1.83;;;;;;;;;;4985074;28;20238;-56